WEATHER DATA

YESTERDAY
Time Temp. Dewp. Hum. Wind dir Wind speed Wind gust Bar. 1h Prec. 24h Prec.
00:02 13.9 7.2 64 237 0.6 1.7 1023.1 0.0000 0.0000
00:11 13.7 7 64 246 0.6 1.7 1023 0.0000 0.0000
00:22 13.6 7.2 65 249 0.6 1.9 1023.1 0.0000 0.0000
00:32 13.5 7.1 65 228 0.6 1.4 1023.1 0.0000 0.0000
00:42 13.5 7.1 65 222 0.6 1.9 1023.1 0.0000 0.0000
00:52 13.4 7 65 225 0.8 3.1 1023.2 0.0000 0.0000
01:02 13.4 7 65 241 0.8 2.5 1023.1 0.0000 0.0000
01:12 13.2 6.8 65 225 0.6 1.9 1023.1 0.0000 0.0000
01:22 13.1 6.7 65 244 0.8 1.9 1023.1 0.0000 0.0000
01:33 13 6.6 65 235 0.6 1.4 1023 0.0000 0.0000
01:43 12.9 6.7 66 246 0.6 1.4 1023.1 0.0000 0.0000
01:52 12.9 6.7 66 225 0.3 0.8 1023.2 0.0000 0.0000
02:03 12.9 6.7 66 225 0.3 1.1 1023.3 0.0000 0.0000
02:13 12.8 6.6 66 222 0.6 1.7 1023.2 0.0000 0.0000
02:23 12.8 6.6 66 244 0.6 1.7 1023.2 0.0000 0.0000
02:32 12.6 6.6 67 238 0.8 1.9 1023.2 0.0000 0.0000
02:43 12.5 6.5 67 218 0.8 1.9 1023.1 0.0000 0.0000
02:53 12.4 6.5 67 222 0.8 1.9 1023.3 0.0000 0.0000
03:03 12.4 6.5 67 218 0.8 2.2 1023 0.0000 0.0000
03:13 12.3 6.4 67 210 0.6 1.7 1023 0.0000 0.0000
03:23 12.3 6.4 67 217 0.6 2.2 1023 0.0000 0.0000
03:33 12.2 6.3 67 220 0.8 3.1 1022.8 0.0000 0.0000
03:43 12.2 6.3 67 219 0.8 3.1 1022.8 0.0000 0.0000
03:53 12.1 6.2 67 223 1.1 3.1 1022.8 0.0000 0.0000
04:03 12.2 6.5 68 225 1.1 3.1 1022.7 0.0000 0.0000
04:13 12.1 6.2 67 231 1.4 3.3 1022.6 0.0000 0.0000
04:24 12.1 6.4 68 229 1.1 4.2 1022.5 0.0000 0.0000
04:34 12.1 6.4 68 223 1.1 2.8 1022.5 0.0000 0.0000
04:43 12.1 6.4 68 231 1.1 3.9 1022.6 0.0000 0.0000
04:53 12.1 6.4 68 226 1.4 5.8 1022.4 0.0000 0.0000
05:02 12.1 6.4 68 227 0.8 2.2 1022.4 0.0000 0.0000
05:12 12.1 6.4 68 228 1.1 3.9 1022.2 0.0000 0.0000
05:22 12.1 6.4 68 225 1.4 5 1022.2 0.0000 0.0000
05:33 12.1 6.4 68 228 1.1 5.6 1022.2 0.0000 0.0000
05:42 12 6.3 68 232 1.1 3.6 1022.2 0.0000 0.0000
05:52 12.1 6.4 68 226 1.1 3.3 1022.2 0.0000 0.0000
06:03 12.1 6.6 69 228 1.4 3.6 1022 0.0000 0.0000
06:13 12.2 6.7 69 223 1.1 4.4 1021.9 0.0000 0.0000
06:22 12.2 6.7 69 232 1.4 4.4 1021.8 0.0000 0.0000
06:33 12.4 6.9 69 230 1.1 3.6 1021.7 0.0000 0.0000
06:43 12.6 7.1 69 232 1.7 3.6 1021.7 0.0000 0.0000
06:53 13.2 7.2 67 232 1.1 3.1 1021.8 0.0000 0.0000
07:03 13.6 7.4 66 239 1.1 3.1 1021.8 0.0000 0.0000
07:13 14.2 7.7 65 232 1.4 3.9 1021.7 0.0000 0.0000
07:23 14.3 7.6 64 229 1.1 3.1 1021.8 0.0000 0.0000
07:33 14.1 7.4 64 228 1.4 5 1021.9 0.0000 0.0000
07:43 13.9 7.4 65 232 1.1 2.8 1021.9 0.0000 0.0000
07:53 13.7 7.2 65 225 1.4 3.1 1021.8 0.0000 0.0000
08:03 13.5 7.3 66 229 1.1 4.4 1022 0.0000 0.0000
08:13 13.4 7.2 66 230 1.1 3.6 1022 0.0000 0.0000
08:24 13.3 7.5 68 221 0.8 3.1 1022 0.0000 0.0000
08:34 13.3 7.5 68 227 0.8 2.8 1022.1 0.0000 0.0000
08:44 13.2 7.4 68 222 1.1 3.1 1022.2 0.0000 0.0000
08:54 13.1 8 71 229 1.1 4.2 1022.3 0.0000 0.0000
09:04 12.8 8.1 73 228 1.1 3.6 1022.2 0.1475 0.1000
09:14 12.7 8.4 75 218 0.8 2.2 1022.1 0.1475 0.1000
09:24 12.6 8.5 76 239 0.8 3.3 1022.1 0.1475 0.1000
09:34 12.6 8.5 76 232 1.1 4.2 1022.2 0.2951 0.3000
09:43 12.5 8.4 76 233 1.4 4.2 1022.3 0.4426 0.4000
09:53 12.4 8.5 77 225 1.1 3.1 1022.3 0.5902 0.6000
10:04 12.3 8.6 78 223 1.4 3.6 1022.2 0.5902 0.7000
10:14 12.3 8.8 79 228 0.8 2.8 1022.3 0.8853 1.0000
10:23 12.3 9 80 227 1.1 3.1 1022.4 1.3279 1.5000
10:33 12.2 8.9 80 239 1.4 4.2 1022.5 1.3279 1.6000
10:44 12.2 9 81 236 1.4 4.4 1022.5 1.1804 1.6000
10:54 12.3 9.1 81 240 1.9 6.4 1022.4 0.8853 1.6000
11:03 12.6 9.6 82 239 1.4 3.6 1022.5 0.5902 1.6000
11:14 12.9 9.5 80 237 1.7 5.3 1022.5 0.2951 1.6000
11:24 13.1 9.4 78 242 1.9 5 1022.5 0.1475 1.6000
11:34 13.5 9.2 75 238 2.5 6.1 1022.6 0.0000 1.6000
11:44 13.7 9.2 74 245 1.9 5.8 1022.8 0.0000 1.6000
11:54 13.6 8.7 72 241 1.9 5.6 1022.9 0.0000 1.6000
12:04 13.4 8.7 73 239 2.2 4.7 1023.2 0.0000 1.6000
12:14 13.2 8.5 73 239 1.9 4.2 1023.4 0.0000 1.6000
12:24 13.3 9 75 244 1.7 3.9 1023.3 0.0000 1.6000
12:34 13.7 9.4 75 239 1.4 3.6 1023.1 0.0000 1.6000
12:44 14.1 9.1 72 244 1.9 5.6 1023.3 0.0000 1.6000
12:54 14.2 9.8 75 246 1.7 4.2 1023.5 0.0000 1.6000
13:05 14.4 9.8 74 245 1.7 3.9 1023.4 0.0000 1.6000
13:14 14.7 9.9 73 226 1.1 3.9 1023.4 0.0000 1.6000
13:24 15.1 9.7 70 240 1.1 3.6 1023.3 0.0000 1.6000
13:35 15.3 9.9 70 233 1.4 3.9 1023.5 0.0000 1.6000
13:45 15.5 9.6 68 236 1.4 3.9 1023.4 0.0000 1.6000
13:56 15.6 9.7 68 241 1.4 6.1 1023.4 0.0000 1.6000
14:05 15.9 9.6 66 245 1.7 3.9 1023.5 0.0000 1.6000
14:16 15.8 9.2 65 241 1.7 4.2 1023.6 0.0000 1.6000
14:26 16 9.9 67 241 1.4 4.2 1023.5 0.0000 1.6000
14:36 16.4 9.6 64 236 1.7 4.7 1023.5 0.0000 1.6000
14:46 17 10.4 65 240 1.4 4.4 1023.5 0.0000 1.6000
14:56 17.3 10.2 63 232 1.1 3.1 1023.4 0.0000 1.6000
15:06 17.6 10 61 234 1.7 3.3 1023.3 0.0000 1.6000
15:19 17.9 9.8 59 239 1.4 3.9 1023.5 0.0000 1.6000
15:29 18.1 10 59 251 2.2 5.3 1023.6 0.0000 1.6000
15:39 17.7 9.6 59 241 1.7 4.4 1023.8 0.0000 1.6000
15:50 17.4 10.1 62 244 1.4 3.1 1023.9 0.0000 1.6000
15:59 17.3 9.7 61 242 1.4 3.3 1023.8 0.0000 1.6000
16:09 17.2 9.6 61 245 1.4 4.2 1023.8 0.0000 1.6000
16:20 17.2 9.4 60 252 2.2 4.4 1024 0.0000 1.6000
16:30 17.1 10.2 64 251 1.4 3.9 1023.9 0.0000 1.6000
16:45 17.3 10.2 63 247 1.1 3.3 1023.7 0.0000 1.6000
16:55 17.3 9.7 61 248 1.7 3.9 1023.8 0.0000 1.6000
17:05 17.3 9.7 61 257 1.7 4.7 1023.9 0.0000 1.6000
17:15 17.4 9.6 60 238 1.4 3.6 1023.8 0.0000 1.6000
17:25 17.3 8.7 57 241 1.7 6.4 1023.9 0.0000 1.6000
17:36 17.2 8.6 57 248 2.2 5 1023.8 0.0000 1.6000
17:46 17.1 8.5 57 241 1.7 4.4 1023.7 0.0000 1.6000
17:55 17.2 8.9 58 245 1.7 4.2 1023.7 0.0000 1.6000
18:05 17.3 9 58 254 1.4 4.4 1023.8 0.0000 1.6000
18:16 17.4 8.8 57 238 1.7 4.4 1023.8 0.0000 1.6000
18:26 17.5 8.9 57 243 1.7 5.6 1024 0.0000 1.6000
18:36 17.5 8.9 57 248 1.1 3.9 1024.1 0.0000 1.6000
18:46 17.5 8.9 57 235 1.7 4.2 1024 0.0000 1.6000
18:56 17.6 8.7 56 236 1.9 5.3 1024 0.0000 1.6000
19:06 17.8 8.9 56 249 1.7 5 1024.1 0.0000 1.6000
19:16 17.8 9.4 58 240 1.1 2.8 1024.2 0.0000 1.6000
19:27 17.8 9.2 57 236 1.1 2.5 1024.1 0.0000 1.6000
19:37 17.7 9.3 58 231 0.8 2.5 1024.1 0.0000 1.6000
19:47 17.6 9 57 238 1.4 3.1 1024.2 0.0000 1.6000
19:57 17.5 9.2 58 237 1.1 3.3 1024.4 0.0000 1.6000
20:07 17.3 9.2 59 216 1.1 3.3 1024.3 0.0000 1.6000
20:17 17.2 9.4 60 226 0.8 2.2 1024.4 0.0000 1.6000
20:27 17 9.4 61 236 1.4 4.7 1024.3 0.0000 1.6000
20:38 16.9 9.3 61 230 1.1 3.1 1024.5 0.0000 1.6000
20:48 16.7 9.2 61 240 1.4 3.3 1024.8 0.0000 1.6000
20:57 16.5 8.7 60 255 1.4 3.1 1024.8 0.0000 1.6000
21:07 16.3 8.3 59 243 1.4 2.5 1025 0.0000 1.6000
21:18 16.2 7.9 58 252 1.7 5 1025.1 0.0000 1.6000
21:28 16 8 59 236 1.1 5 1025.2 0.0000 1.6000
21:38 15.8 8.1 60 238 1.1 3.1 1025.4 0.0000 1.6000
21:48 15.6 8.1 61 232 0.8 1.7 1025.4 0.0000 1.6000
21:59 15.5 8.3 62 229 0.8 1.9 1025.5 0.0000 1.6000
22:08 15.4 8.4 63 225 0.6 1.9 1025.6 0.0000 1.6000
22:18 15.2 8.2 63 230 0.8 1.7 1025.7 0.0000 1.6000
22:29 15.1 8.3 64 242 0.8 2.2 1025.8 0.0000 1.6000
22:39 14.8 8.3 65 247 1.1 3.1 1025.9 0.0000 1.6000
22:49 14.6 8.1 65 247 1.1 2.8 1026 0.0000 1.6000
22:59 14.4 8.1 66 247 0.8 2.8 1026.2 0.0000 1.6000
23:09 14.3 8 66 237 0.8 2.8 1026.1 0.0000 1.6000
23:19 14.2 7.9 66 230 0.6 1.7 1026.2 0.0000 1.6000
23:29 14.1 8.1 67 233 0.8 2.2 1026.3 0.0000 1.6000
23:40 13.9 7.9 67 235 0.8 1.9 1026.3 0.0000 1.6000
23:50 13.7 7.7 67 231 0.6 1.9 1026.3 0.0000 1.6000

DAY STATISTIC

2018-06-22
TEMPERATURE
AVERAGE
14.5
HIGH
18.1
15:29
LOW
12.0
05:42
PRESSURE
AVERAGE
1023.4
HIGH
1026.3
23:29
LOW
1021.7
06:33
DEWPOINT
AVERAGE
8.2
HIGH
10.4
14:46
LOW
6.2
03:53
HUMIDITY
AVERAGE
66
HIGH
82
11:03
LOW
56
18:56
WIND SPEED
AVERAGE
1.2
HIGH
2.5
11:34
WIND GUST
AVERAGE
3.5
HIGH
6.4
10:54
WIND DIRECTION
PREVAILING
SW
91.5%
N
0.0
NE
0.0
E
0.0
SE
0.0
S
0.0
SW
91.5
W
8.5
NW
0.0
PRECIPITATION
RAIN HOUR
1.3
RAIN DAY
1.6
TEMPERATURE (°C)
LOW
12.0
HIGH
18.1
AVERAGE
14.5
PRESSURE (hpa)
LOW
1021.7
HIGH
1026.3
AVERAGE
1023.4
DEVICE